KMHR/MHR METAR and TAF weather

Enter ICAO airport designator
Station Type Date Time Source
KMHR METAR 2020/09/26 21:47 UTC NOAA

KMHR 262147Z 31009G17KT 10SM BKN250 31/11 A2993


Station Type Date Time Source
KMHR Decoded METAR 2020/09/26 21:47 UTC NOAA

Sacramento, Sacramento Mather Airport, CA, United States (KMHR) 38-33N 121-18W
Sep 26, 2020 - 05:47 PM EDT / 2020.09.26 2147 UTC
Wind: from the NW (310 degrees) at 10 MPH (9 KT) gusting to 20 MPH (17 KT):0
Visibility: 10 mile(s):0
Sky conditions: mostly cloudy
Temperature: 87 F (31 C)
Dew Point: 51 F (11 C)
Relative Humidity: 29%
Pressure (altimeter): 29.93 in. Hg (1013 hPa)
ob: KMHR 262147Z 31009G17KT 10SM BKN250 31/11 A2993
cycle: 22

Station Type Date Time Source
KMHR TAF 2020/09/26 18:51 UTC NOAA

TAF KMHR 261748Z 2618/2718 31007KT P6SM FEW250
FM270500 33011KT P6SM SKC

Example: see airport list